createdAt,value
2018-08-14T00:00:33.874Z,14.61
2018-08-14T00:03:36.104Z,14.57
2018-08-14T00:06:38.424Z,14.59
2018-08-14T00:09:40.817Z,14.56
2018-08-14T00:12:43.212Z,14.65
2018-08-14T00:15:46.987Z,14.86
2018-08-14T00:18:49.250Z,15.13
2018-08-14T00:21:51.629Z,15.26
2018-08-14T00:24:54.009Z,15.40
2018-08-14T00:27:56.398Z,15.52
2018-08-14T00:30:58.779Z,15.64
2018-08-14T00:34:01.097Z,15.65
2018-08-14T00:37:03.464Z,15.70
2018-08-14T00:40:13.281Z,15.72
2018-08-14T00:43:15.582Z,15.79
2018-08-14T00:46:17.864Z,15.89
2018-08-14T00:49:20.158Z,15.97
2018-08-14T00:52:22.588Z,16.04
2018-08-14T00:55:24.923Z,16.07
2018-08-14T00:58:27.172Z,16.14
2018-08-14T01:01:29.604Z,16.20
2018-08-14T01:04:32.006Z,16.23
2018-08-14T01:07:34.288Z,16.23
2018-08-14T01:10:36.675Z,16.26
2018-08-14T01:13:39.076Z,16.24
2018-08-14T01:16:41.426Z,16.28
2018-08-14T01:19:43.686Z,16.26
2018-08-14T01:22:46.560Z,16.29
2018-08-14T01:25:48.845Z,16.26
2018-08-14T01:28:51.220Z,16.24
2018-08-14T01:31:53.526Z,16.27
2018-08-14T01:34:55.853Z,16.28
2018-08-14T01:37:58.080Z,16.32
2018-08-14T01:41:00.394Z,16.30
2018-08-14T01:44:02.653Z,16.31
2018-08-14T01:47:05.164Z,16.32
2018-08-14T01:50:09.688Z,16.28
2018-08-14T01:53:12.110Z,16.36
2018-08-14T01:56:14.392Z,16.36
2018-08-14T01:59:16.621Z,16.36
2018-08-14T02:02:18.995Z,16.41
2018-08-14T02:05:21.379Z,16.43
2018-08-14T02:08:23.706Z,16.41
2018-08-14T02:11:27.184Z,16.39
2018-08-14T02:14:29.431Z,16.32
2018-08-14T02:17:31.726Z,16.24
2018-08-14T02:20:34.019Z,16.20
2018-08-14T02:23:36.366Z,16.21
2018-08-14T02:26:38.656Z,16.22
2018-08-14T02:29:40.873Z,16.20
2018-08-14T02:32:43.251Z,16.19
2018-08-14T02:35:45.656Z,16.15
2018-08-14T02:38:48.018Z,16.11
2018-08-14T02:41:50.353Z,16.05
2018-08-14T02:44:52.582Z,16.04
2018-08-14T02:47:54.886Z,16.04
2018-08-14T02:50:57.143Z,15.95
2018-08-14T02:53:59.694Z,15.98
2018-08-14T02:57:01.914Z,16.00
2018-08-14T03:00:08.024Z,16.05
2018-08-14T03:03:10.276Z,16.06
2018-08-14T03:06:12.606Z,16.07
2018-08-14T03:09:14.885Z,16.02
2018-08-14T03:12:17.407Z,15.98
2018-08-14T03:15:20.767Z,15.91
2018-08-14T03:18:23.095Z,15.86
2018-08-14T03:21:25.388Z,15.87
2018-08-14T03:24:27.824Z,15.94
2018-08-14T03:27:30.178Z,15.95
2018-08-14T03:30:32.517Z,15.93
2018-08-14T03:33:34.822Z,15.89
2018-08-14T03:36:37.200Z,15.82
2018-08-14T03:39:39.438Z,15.72
2018-08-14T03:42:41.852Z,15.66
2018-08-14T03:45:44.162Z,15.68
2018-08-14T03:48:46.380Z,15.65
2018-08-14T03:51:48.637Z,15.66
2018-08-14T03:54:50.918Z,15.57
2018-08-14T03:57:53.147Z,15.52
2018-08-14T04:00:55.533Z,15.44
2018-08-14T04:03:57.841Z,15.41
2018-08-14T04:07:00.151Z,15.40
2018-08-14T04:10:02.553Z,15.37
2018-08-14T04:13:04.938Z,15.35
2018-08-14T04:16:07.221Z,15.40
2018-08-14T04:19:09.720Z,15.43
2018-08-14T04:22:12.054Z,15.42
2018-08-14T04:25:14.435Z,15.56
2018-08-14T04:28:16.722Z,15.78
2018-08-14T04:31:18.917Z,15.95
2018-08-14T04:34:21.161Z,16.08
2018-08-14T04:37:23.476Z,16.23
2018-08-14T04:40:25.695Z,16.27
2018-08-14T04:43:28.040Z,16.23
2018-08-14T04:46:30.378Z,16.26
2018-08-14T04:49:32.724Z,16.32
2018-08-14T04:52:35.014Z,16.50
2018-08-14T04:55:37.205Z,16.59
2018-08-14T04:58:39.491Z,16.85
2018-08-14T05:01:42.784Z,17.09
2018-08-14T05:04:45.108Z,16.76
2018-08-14T05:07:47.410Z,16.53
2018-08-14T05:10:49.666Z,16.44
2018-08-14T05:13:56.448Z,16.46
2018-08-14T05:16:58.832Z,16.46
2018-08-14T05:20:01.073Z,16.51
2018-08-14T05:23:03.304Z,16.52
2018-08-14T05:26:05.547Z,16.52
2018-08-14T05:29:07.866Z,16.59
2018-08-14T05:32:10.150Z,16.60
2018-08-14T05:35:12.574Z,16.66
2018-08-14T05:38:14.829Z,16.68
2018-08-14T05:41:17.028Z,16.68
2018-08-14T05:44:23.139Z,16.71
2018-08-14T05:47:25.388Z,16.83
2018-08-14T05:50:27.591Z,16.92
2018-08-14T05:53:29.856Z,16.97
2018-08-14T05:56:32.032Z,17.05
2018-08-14T05:59:34.301Z,17.16
2018-08-14T06:02:36.765Z,17.17
2018-08-14T06:05:38.992Z,17.33
2018-08-14T06:08:41.328Z,17.19
2018-08-14T06:11:43.602Z,17.00
2018-08-14T06:14:46.528Z,17.04
2018-08-14T06:17:48.805Z,17.15
2018-08-14T06:20:51.074Z,17.18
2018-08-14T06:23:53.358Z,17.36
2018-08-14T06:26:55.661Z,18.10
2018-08-14T06:29:58.019Z,19.13
2018-08-14T06:33:00.254Z,18.55
2018-08-14T06:36:02.474Z,18.25
2018-08-14T06:39:09.123Z,18.41
2018-08-14T06:42:11.367Z,18.46
2018-08-14T06:45:15.010Z,19.46
2018-08-14T06:48:17.836Z,19.76
2018-08-14T06:51:20.279Z,19.47
2018-08-14T06:54:22.474Z,20.59
2018-08-14T06:57:24.766Z,20.14
2018-08-14T07:00:27.151Z,20.62
2018-08-14T07:03:29.644Z,20.72
2018-08-14T07:06:31.964Z,20.81
2018-08-14T07:09:34.263Z,20.60
2018-08-14T07:12:36.850Z,20.16
2018-08-14T07:15:39.206Z,19.23
2018-08-14T07:18:41.556Z,18.94
2018-08-14T07:21:43.904Z,19.57
2018-08-14T07:24:46.322Z,19.67
2018-08-14T07:27:49.179Z,19.58
2018-08-14T07:30:51.529Z,19.05
2018-08-14T07:33:53.835Z,19.00
2018-08-14T07:36:56.100Z,20.15
2018-08-14T07:39:58.418Z,20.37
2018-08-14T07:43:00.764Z,20.03
2018-08-14T07:46:03.031Z,20.44
2018-08-14T07:49:05.508Z,20.33
2018-08-14T07:52:08.869Z,20.13
2018-08-14T07:55:12.663Z,20.17
2018-08-14T07:58:14.972Z,20.39
2018-08-14T08:01:18.252Z,20.75
2018-08-14T08:04:20.780Z,21.22
2018-08-14T08:07:23.081Z,21.17
2018-08-14T08:10:26.428Z,20.91
2018-08-14T08:13:28.827Z,20.64
2018-08-14T08:16:31.303Z,20.01
2018-08-14T08:19:33.811Z,19.64
2018-08-14T08:22:36.380Z,19.49
2018-08-14T08:25:38.696Z,19.64
2018-08-14T08:28:40.991Z,19.75
2018-08-14T08:31:43.322Z,20.00
2018-08-14T08:34:45.617Z,20.07
2018-08-14T08:37:47.900Z,20.04
2018-08-14T08:40:50.170Z,19.89
2018-08-14T08:43:52.440Z,19.65
2018-08-14T08:46:54.696Z,19.65
2018-08-14T08:49:57.018Z,19.48
2018-08-14T08:52:59.421Z,19.16
2018-08-14T08:56:01.705Z,19.08
2018-08-14T08:59:04.041Z,19.02
2018-08-14T09:02:06.300Z,18.97
2018-08-14T09:05:10.634Z,18.74
2018-08-14T09:08:14.523Z,18.61
2018-08-14T09:11:16.943Z,18.28
2018-08-14T09:14:19.285Z,17.99
2018-08-14T09:17:21.665Z,17.88
2018-08-14T09:20:24.115Z,17.97
2018-08-14T09:23:26.369Z,18.35
2018-08-14T09:26:28.958Z,19.04
2018-08-14T09:29:31.297Z,19.50
2018-08-14T09:32:33.578Z,20.13
2018-08-14T09:35:36.082Z,20.21
2018-08-14T09:38:38.424Z,19.90
2018-08-14T09:41:41.174Z,20.19
2018-08-14T09:44:43.487Z,20.12
2018-08-14T09:47:45.863Z,20.27
2018-08-14T09:50:48.141Z,20.55
2018-08-14T09:53:50.524Z,20.75
2018-08-14T09:56:52.862Z,21.16
2018-08-14T09:59:55.287Z,20.84
2018-08-14T10:03:03.361Z,21.34
2018-08-14T10:06:11.396Z,21.67
2018-08-14T10:09:13.694Z,22.08
2018-08-14T10:12:16.093Z,22.21
2018-08-14T10:15:18.445Z,22.70
2018-08-14T10:18:22.323Z,22.06
2018-08-14T10:21:24.792Z,22.05
2018-08-14T10:28:00.414Z,22.59
2018-08-14T10:31:02.750Z,22.02
2018-08-14T10:34:05.071Z,22.00
2018-08-14T10:37:07.692Z,21.98
2018-08-14T10:40:12.218Z,21.80
2018-08-14T10:43:14.645Z,21.43
2018-08-14T10:46:17.017Z,21.27
2018-08-14T10:49:19.268Z,20.55
2018-08-14T10:52:21.551Z,20.65
2018-08-14T10:55:23.890Z,21.45
2018-08-14T10:58:26.367Z,21.83
2018-08-14T11:01:28.746Z,21.98
2018-08-14T11:04:31.285Z,22.40
2018-08-14T11:07:33.646Z,21.95
2018-08-14T11:10:41.603Z,22.36
2018-08-14T11:13:43.894Z,22.20
2018-08-14T11:16:46.185Z,22.26
2018-08-14T11:19:48.455Z,22.63
2018-08-14T11:22:50.768Z,22.09
2018-08-14T11:25:55.061Z,22.23
2018-08-14T11:28:57.543Z,21.96
2018-08-14T11:31:59.882Z,21.99
2018-08-14T11:35:02.242Z,22.06
2018-08-14T11:38:04.645Z,22.35
2018-08-14T11:41:08.035Z,22.26
2018-08-14T11:44:10.392Z,22.27
2018-08-14T11:47:12.757Z,22.29
2018-08-14T11:50:17.130Z,22.18
2018-08-14T11:53:19.428Z,21.75
2018-08-14T11:56:21.736Z,21.47
2018-08-14T11:59:25.033Z,21.29
2018-08-14T12:02:28.370Z,21.20
2018-08-14T12:05:30.623Z,21.12
2018-08-14T12:08:33.015Z,21.58
2018-08-14T12:11:35.750Z,21.96
2018-08-14T12:14:38.968Z,22.38
2018-08-14T12:17:43.583Z,23.05
2018-08-14T12:20:45.863Z,23.60
2018-08-14T12:23:48.175Z,22.79
2018-08-14T12:26:50.520Z,22.74
2018-08-14T12:29:52.748Z,22.99
2018-08-14T12:32:55.068Z,23.65
2018-08-14T12:36:01.165Z,23.10
2018-08-14T12:39:05.489Z,22.64
2018-08-14T12:42:08.173Z,22.35
2018-08-14T12:45:14.032Z,22.60
2018-08-14T12:48:17.136Z,22.64
2018-08-14T12:51:19.419Z,22.62
2018-08-14T12:54:21.968Z,22.13
2018-08-14T12:57:24.354Z,22.70
2018-08-14T13:00:29.069Z,22.21
2018-08-14T13:03:31.374Z,22.14
2018-08-14T13:06:33.642Z,22.59
2018-08-14T13:09:36.051Z,22.95
2018-08-14T13:12:39.112Z,23.38
2018-08-14T13:15:41.560Z,23.57
2018-08-14T13:18:43.915Z,23.26
2018-08-14T13:21:46.276Z,23.28
2018-08-14T13:24:48.538Z,23.28
2018-08-14T13:27:50.896Z,23.32
2018-08-14T13:30:53.182Z,23.28
2018-08-14T13:33:58.638Z,23.22
2018-08-14T13:37:01.246Z,22.80
2018-08-14T13:40:04.580Z,22.82
2018-08-14T13:43:09.924Z,23.01
2018-08-14T13:46:13.152Z,22.91
2018-08-14T13:49:20.397Z,22.87
2018-08-14T13:52:22.715Z,23.14
2018-08-14T13:55:26.231Z,22.90
2018-08-14T13:58:29.507Z,22.97
2018-08-14T14:01:31.835Z,23.12
2018-08-14T14:04:34.954Z,22.87
2018-08-14T14:07:37.425Z,23.29
2018-08-14T14:10:39.692Z,23.13
2018-08-14T14:13:42.287Z,23.26
2018-08-14T14:16:44.977Z,23.50
2018-08-14T14:19:48.624Z,23.47
2018-08-14T14:22:53.514Z,23.71
2018-08-14T14:25:56.175Z,23.45
2018-08-14T14:28:58.869Z,23.76
2018-08-14T14:32:01.145Z,24.37
2018-08-14T14:35:04.555Z,24.33
2018-08-14T14:38:06.988Z,24.29
2018-08-14T14:41:09.510Z,24.87
2018-08-14T14:44:11.961Z,24.61
2018-08-14T14:47:14.537Z,24.40
2018-08-14T14:50:16.924Z,24.43
2018-08-14T14:53:22.800Z,25.30
2018-08-14T14:56:26.109Z,25.19
2018-08-14T14:59:29.570Z,24.16
2018-08-14T15:02:31.875Z,23.91
2018-08-14T15:05:34.253Z,23.78
2018-08-14T15:08:37.653Z,23.73
2018-08-14T15:11:40.661Z,23.78
2018-08-14T15:14:43.019Z,23.65
2018-08-14T15:17:46.332Z,24.55
2018-08-14T15:20:49.802Z,25.55
2018-08-14T15:23:52.207Z,25.06
2018-08-14T15:26:54.530Z,25.34
2018-08-14T15:30:06.907Z,25.34
2018-08-14T15:33:09.244Z,25.31
2018-08-14T15:36:16.032Z,25.21
2018-08-14T15:39:21.237Z,25.67
2018-08-14T15:42:23.583Z,25.22
2018-08-14T15:45:26.008Z,24.25
2018-08-14T15:48:28.239Z,23.77
2018-08-14T15:51:30.557Z,23.81
2018-08-14T15:54:32.846Z,23.31
2018-08-14T15:57:35.126Z,23.24
2018-08-14T16:00:37.575Z,23.79
2018-08-14T16:03:39.953Z,24.25
2018-08-14T16:06:42.485Z,24.02
2018-08-14T16:09:44.857Z,24.11
2018-08-14T16:12:47.134Z,24.43
2018-08-14T16:15:49.766Z,24.54
2018-08-14T16:18:52.238Z,24.86
2018-08-14T16:21:54.625Z,24.24
2018-08-14T16:24:56.989Z,24.24
2018-08-14T16:27:59.424Z,23.83
2018-08-14T16:31:01.962Z,23.43
2018-08-14T16:34:04.399Z,23.30
2018-08-14T16:37:06.640Z,23.13
2018-08-14T16:40:09.122Z,23.08
2018-08-14T16:43:11.398Z,22.97
2018-08-14T16:46:13.811Z,22.74
2018-08-14T16:49:16.152Z,22.66
2018-08-14T16:52:18.635Z,22.61
2018-08-14T16:55:20.914Z,22.51
2018-08-14T16:58:23.234Z,22.39
2018-08-14T17:01:25.650Z,22.41
2018-08-14T17:04:28.024Z,22.14
2018-08-14T17:07:30.429Z,21.88
2018-08-14T17:10:32.762Z,21.61
2018-08-14T17:13:35.053Z,21.41
2018-08-14T17:16:37.715Z,21.33
2018-08-14T17:19:39.032Z,21.33
2018-08-14T17:22:41.563Z,21.30
2018-08-14T17:25:43.996Z,21.29
2018-08-14T17:28:46.236Z,20.98
2018-08-14T17:31:48.581Z,20.92
2018-08-14T17:34:51.074Z,20.91
2018-08-14T17:37:54.492Z,20.90
2018-08-14T17:40:56.770Z,20.77
2018-08-14T17:43:59.012Z,20.62
2018-08-14T17:47:05.614Z,20.43
2018-08-14T17:50:07.872Z,20.35
2018-08-14T17:53:10.267Z,20.32
2018-08-14T17:56:12.539Z,20.25
2018-08-14T17:59:14.808Z,20.19
2018-08-14T18:02:17.090Z,20.08
2018-08-14T18:05:19.452Z,20.04
2018-08-14T18:08:21.768Z,20.00
2018-08-14T18:11:24.130Z,19.97
2018-08-14T18:14:26.460Z,19.86
2018-08-14T18:17:28.916Z,19.81
2018-08-14T18:20:31.296Z,19.79
2018-08-14T18:23:33.620Z,19.76
2018-08-14T18:26:36.045Z,19.76
2018-08-14T18:29:38.366Z,19.78
2018-08-14T18:32:40.813Z,19.77
2018-08-14T18:35:43.167Z,19.70
2018-08-14T18:38:45.508Z,19.62
2018-08-14T18:41:47.847Z,19.59
2018-08-14T18:44:50.167Z,19.53
2018-08-14T18:47:52.465Z,19.31
2018-08-14T18:50:54.898Z,19.24
2018-08-14T18:53:57.409Z,19.08
2018-08-14T18:56:59.810Z,18.96
2018-08-14T19:00:02.231Z,18.81
2018-08-14T19:03:04.711Z,18.85
2018-08-14T19:06:07.084Z,18.79
2018-08-14T19:09:09.535Z,18.66
2018-08-14T19:12:11.911Z,18.50
2018-08-14T19:15:19.798Z,18.40
2018-08-14T19:18:22.124Z,18.31
2018-08-14T19:21:24.475Z,18.30
2018-08-14T19:24:26.749Z,18.38
2018-08-14T19:27:29.167Z,18.45
2018-08-14T19:30:31.497Z,18.51
2018-08-14T19:33:33.888Z,18.64
2018-08-14T19:36:36.362Z,18.60
2018-08-14T19:39:38.589Z,18.61
2018-08-14T19:42:40.855Z,18.55
2018-08-14T19:45:43.117Z,18.48
2018-08-14T19:48:45.561Z,18.42
2018-08-14T19:51:47.856Z,18.36
2018-08-14T19:54:50.088Z,18.39
2018-08-14T19:57:52.411Z,18.34
2018-08-14T20:00:54.673Z,18.32
2018-08-14T20:03:56.892Z,18.23
2018-08-14T20:06:59.205Z,18.10
2018-08-14T20:10:01.586Z,18.08
2018-08-14T20:13:04.080Z,17.99
2018-08-14T20:16:08.886Z,17.88
2018-08-14T20:19:11.348Z,17.78
2018-08-14T20:22:14.689Z,17.77
2018-08-14T20:25:16.931Z,17.69
2018-08-14T20:28:19.198Z,17.53
2018-08-14T20:31:21.441Z,17.35
2018-08-14T20:34:23.741Z,17.18
2018-08-14T20:37:26.457Z,17.18
2018-08-14T20:40:28.807Z,17.10
2018-08-14T20:44:34.588Z,17.03
2018-08-14T20:47:37.056Z,16.91
2018-08-14T20:50:39.340Z,16.93
2018-08-14T20:53:41.754Z,16.84
2018-08-14T20:56:44.148Z,16.73
2018-08-14T20:59:46.471Z,16.68
2018-08-14T21:02:49.681Z,16.54
2018-08-14T21:05:52.100Z,16.51
2018-08-14T21:08:54.343Z,16.44
2018-08-14T21:11:56.559Z,16.40
2018-08-14T21:14:58.787Z,16.43
2018-08-14T21:18:01.349Z,16.56
2018-08-14T21:21:03.641Z,16.64
2018-08-14T21:24:05.872Z,16.73
2018-08-14T21:27:08.135Z,16.78
2018-08-14T21:30:12.663Z,16.84
2018-08-14T21:33:14.923Z,16.96
2018-08-14T21:36:17.238Z,17.12
2018-08-14T21:39:19.503Z,17.24
2018-08-14T21:42:21.774Z,17.32
2018-08-14T21:45:24.053Z,17.41
2018-08-14T21:48:26.278Z,17.50
2018-08-14T21:51:28.520Z,17.52
2018-08-14T21:54:30.893Z,17.48
2018-08-14T21:57:33.228Z,17.45
2018-08-14T22:01:10.671Z,17.46
2018-08-14T22:04:13.022Z,17.51
2018-08-14T22:07:15.393Z,17.55
2018-08-14T22:10:19.170Z,17.61
2018-08-14T22:13:21.740Z,17.66
2018-08-14T22:16:24.095Z,17.67
2018-08-14T22:19:26.358Z,17.65
2018-08-14T22:22:28.602Z,17.63
2018-08-14T22:25:30.952Z,17.61
2018-08-14T22:28:33.141Z,17.62
2018-08-14T22:31:35.391Z,17.72
2018-08-14T22:34:37.783Z,17.78
2018-08-14T22:37:40.100Z,17.75
2018-08-14T22:40:42.405Z,17.69
2018-08-14T22:43:44.723Z,17.69
2018-08-14T22:46:47.052Z,17.68
2018-08-14T22:49:49.346Z,17.56
2018-08-14T22:52:51.662Z,17.44
2018-08-14T22:55:53.993Z,17.41
2018-08-14T22:58:56.284Z,17.46
2018-08-14T23:01:58.509Z,17.46
2018-08-14T23:05:00.875Z,17.40
2018-08-14T23:08:03.213Z,17.40
2018-08-14T23:11:06.079Z,17.45
2018-08-14T23:14:08.446Z,17.58
2018-08-14T23:17:10.663Z,17.89
2018-08-14T23:20:13.824Z,17.91
2018-08-14T23:23:16.183Z,17.83
2018-08-14T23:26:18.554Z,17.76
2018-08-14T23:29:21.765Z,17.70
2018-08-14T23:32:24.167Z,17.57
2018-08-14T23:35:26.377Z,17.48
2018-08-14T23:38:28.676Z,17.44
2018-08-14T23:41:30.968Z,17.37
2018-08-14T23:44:33.265Z,17.32
2018-08-14T23:47:35.721Z,17.23
2018-08-14T23:50:37.980Z,17.21
2018-08-14T23:53:40.518Z,17.23
2018-08-14T23:56:42.744Z,17.24
2018-08-14T23:59:45.138Z,17.18
